sensor_id;sensor_type;location;lat;lon;timestamp;pressure;altitude;pressure_sealevel;temperature;humidity
71956;BME280;59829;50.562;6.258;2022-10-31T00:01:46;96217.97;;;12.70;100.00
71956;BME280;59829;50.562;6.258;2022-10-31T00:11:46;96245.56;;;12.68;100.00
71956;BME280;59829;50.562;6.258;2022-10-31T00:21:47;96224.47;;;12.74;100.00
71956;BME280;59829;50.562;6.258;2022-10-31T00:31:47;96211.09;;;12.80;100.00
71956;BME280;59829;50.562;6.258;2022-10-31T00:41:47;96200.91;;;12.69;100.00
71956;BME280;59829;50.562;6.258;2022-10-31T00:51:48;96200.28;;;12.56;100.00
71956;BME280;59829;50.562;6.258;2022-10-31T01:01:48;96196.19;;;12.74;100.00
71956;BME280;59829;50.562;6.258;2022-10-31T01:11:48;96189.22;;;12.65;100.00
71956;BME280;59829;50.562;6.258;2022-10-31T01:21:48;96186.09;;;12.41;100.00
71956;BME280;59829;50.562;6.258;2022-10-31T01:31:49;96195.56;;;12.40;100.00
71956;BME280;59829;50.562;6.258;2022-10-31T01:41:51;96202.00;;;12.34;100.00
71956;BME280;59829;50.562;6.258;2022-10-31T01:52:06;96197.13;;;11.99;100.00
71956;BME280;59829;50.562;6.258;2022-10-31T02:02:10;96202.50;;;12.28;100.00
71956;BME280;59829;50.562;6.258;2022-10-31T02:12:11;96199.63;;;12.11;100.00
71956;BME280;59829;50.562;6.258;2022-10-31T02:22:26;96180.53;;;12.35;100.00
71956;BME280;59829;50.562;6.258;2022-10-31T02:43:02;96180.56;;;12.45;100.00
71956;BME280;59829;50.562;6.258;2022-10-31T02:53:05;96186.75;;;12.54;100.00
71956;BME280;59829;50.562;6.258;2022-10-31T03:03:22;96166.88;;;12.56;100.00
71956;BME280;59829;50.562;6.258;2022-10-31T03:13:42;96156.38;;;12.48;100.00
71956;BME280;59829;50.562;6.258;2022-10-31T03:23:48;96161.91;;;12.22;100.00
71956;BME280;59829;50.562;6.258;2022-10-31T03:33:51;96158.28;;;12.14;100.00
71956;BME280;59829;50.562;6.258;2022-10-31T03:43:56;96143.78;;;11.92;100.00
71956;BME280;59829;50.562;6.258;2022-10-31T04:04:14;96155.31;;;11.43;100.00
71956;BME280;59829;50.562;6.258;2022-10-31T04:14:15;96146.03;;;11.31;100.00
71956;BME280;59829;50.562;6.258;2022-10-31T04:24:15;96147.88;;;11.17;100.00
71956;BME280;59829;50.562;6.258;2022-10-31T04:34:15;96134.94;;;11.08;100.00
71956;BME280;59829;50.562;6.258;2022-10-31T04:44:16;96129.72;;;10.87;100.00
71956;BME280;59829;50.562;6.258;2022-10-31T04:54:16;96130.88;;;10.61;100.00
71956;BME280;59829;50.562;6.258;2022-10-31T05:04:17;96126.44;;;10.63;100.00
71956;BME280;59829;50.562;6.258;2022-10-31T05:14:17;96108.25;;;10.54;100.00
71956;BME280;59829;50.562;6.258;2022-10-31T05:24:17;96117.56;;;10.44;100.00
71956;BME280;59829;50.562;6.258;2022-10-31T05:34:18;96123.28;;;10.59;100.00
71956;BME280;59829;50.562;6.258;2022-10-31T05:44:18;96118.22;;;10.35;100.00
71956;BME280;59829;50.562;6.258;2022-10-31T05:54:18;96098.22;;;10.40;100.00
71956;BME280;59829;50.562;6.258;2022-10-31T06:04:18;96099.38;;;10.58;100.00
71956;BME280;59829;50.562;6.258;2022-10-31T06:14:19;96095.13;;;10.59;100.00
71956;BME280;59829;50.562;6.258;2022-10-31T06:24:19;96083.69;;;10.52;100.00
71956;BME280;59829;50.562;6.258;2022-10-31T06:34:20;96107.31;;;10.44;100.00
71956;BME280;59829;50.562;6.258;2022-10-31T06:44:20;96113.84;;;10.48;100.00
71956;BME280;59829;50.562;6.258;2022-10-31T06:54:20;96114.19;;;10.55;100.00
71956;BME280;59829;50.562;6.258;2022-10-31T07:04:21;96110.63;;;10.80;100.00
71956;BME280;59829;50.562;6.258;2022-10-31T07:14:22;96108.59;;;10.72;100.00
71956;BME280;59829;50.562;6.258;2022-10-31T07:24:22;96117.47;;;11.02;100.00
71956;BME280;59829;50.562;6.258;2022-10-31T07:34:23;96117.69;;;11.21;100.00
71956;BME280;59829;50.562;6.258;2022-10-31T07:44:23;96117.50;;;11.56;100.00
71956;BME280;59829;50.562;6.258;2022-10-31T07:54:23;96121.81;;;11.56;100.00
71956;BME280;59829;50.562;6.258;2022-10-31T08:04:24;96122.13;;;11.85;100.00
71956;BME280;59829;50.562;6.258;2022-10-31T08:14:24;96125.94;;;11.90;100.00
71956;BME280;59829;50.562;6.258;2022-10-31T08:24:25;96121.09;;;12.08;100.00
71956;BME280;59829;50.562;6.258;2022-10-31T08:34:26;96106.44;;;12.61;100.00
71956;BME280;59829;50.562;6.258;2022-10-31T08:44:26;96105.56;;;13.03;100.00
71956;BME280;59829;50.562;6.258;2022-10-31T08:54:26;96090.84;;;13.74;100.00
71956;BME280;59829;50.562;6.258;2022-10-31T09:04:26;96070.00;;;14.62;100.00
71956;BME280;59829;50.562;6.258;2022-10-31T09:14:27;96039.53;;;15.76;100.00
71956;BME280;59829;50.562;6.258;2022-10-31T09:24:27;96023.91;;;16.81;95.53
71956;BME280;59829;50.562;6.258;2022-10-31T09:34:27;95979.16;;;17.80;84.18
71956;BME280;59829;50.562;6.258;2022-10-31T09:44:46;95960.63;;;18.31;82.96
71956;BME280;59829;50.562;6.258;2022-10-31T09:55:03;95966.31;;;18.82;75.19
71956;BME280;59829;50.562;6.258;2022-10-31T10:05:16;95980.66;;;19.01;74.36
71956;BME280;59829;50.562;6.258;2022-10-31T10:25:37;95974.56;;;18.94;76.43
71956;BME280;59829;50.562;6.258;2022-10-31T10:35:44;95971.47;;;19.21;74.65
71956;BME280;59829;50.562;6.258;2022-10-31T11:06:39;95925.91;;;20.32;62.83
71956;BME280;59829;50.562;6.258;2022-10-31T11:16:47;95895.94;;;20.21;62.99
71956;BME280;59829;50.562;6.258;2022-10-31T11:26:50;95890.66;;;20.14;60.85
71956;BME280;59829;50.562;6.258;2022-10-31T11:36:50;95877.53;;;20.23;60.63
71956;BME280;59829;50.562;6.258;2022-10-31T11:46:53;95854.75;;;20.10;61.35
71956;BME280;59829;50.562;6.258;2022-10-31T11:56:55;95837.38;;;20.10;61.55
71956;BME280;59829;50.562;6.258;2022-10-31T12:06:55;95799.34;;;19.95;61.27
71956;BME280;59829;50.562;6.258;2022-10-31T12:17:01;95770.59;;;19.81;59.73
71956;BME280;59829;50.562;6.258;2022-10-31T12:37:47;95757.47;;;20.55;59.90
71956;BME280;59829;50.562;6.258;2022-10-31T12:48:05;95740.69;;;20.22;58.73
71956;BME280;59829;50.562;6.258;2022-10-31T12:58:56;95706.81;;;22.04;55.53
71956;BME280;59829;50.562;6.258;2022-10-31T13:09:02;95690.34;;;20.72;57.45
71956;BME280;59829;50.562;6.258;2022-10-31T13:50:30;95608.97;;;21.19;53.46
71956;BME280;59829;50.562;6.258;2022-10-31T14:00:31;95610.63;;;21.27;54.43
71956;BME280;59829;50.562;6.258;2022-10-31T14:10:36;95614.06;;;21.88;50.63
71956;BME280;59829;50.562;6.258;2022-10-31T14:30:38;95600.91;;;20.80;51.58
71956;BME280;59829;50.562;6.258;2022-10-31T14:51:19;95560.28;;;20.51;51.72
71956;BME280;59829;50.562;6.258;2022-10-31T15:01:24;95538.50;;;20.58;52.78
71956;BME280;59829;50.562;6.258;2022-10-31T15:11:26;95528.09;;;20.58;50.75
71956;BME280;59829;50.562;6.258;2022-10-31T15:21:27;95527.81;;;20.81;49.30
71956;BME280;59829;50.562;6.258;2022-10-31T15:31:28;95530.81;;;21.19;47.25
71956;BME280;59829;50.562;6.258;2022-10-31T15:41:50;95513.50;;;20.36;49.54
71956;BME280;59829;50.562;6.258;2022-10-31T15:51:51;95516.91;;;18.93;52.17
71956;BME280;59829;50.562;6.258;2022-10-31T16:02:03;95528.91;;;17.90;55.30
71956;BME280;59829;50.562;6.258;2022-10-31T16:12:03;95516.38;;;17.16;58.44
71956;BME280;59829;50.562;6.258;2022-10-31T16:22:06;95519.03;;;16.53;59.91
71956;BME280;59829;50.562;6.258;2022-10-31T16:32:34;95536.03;;;16.31;62.14
71956;BME280;59829;50.562;6.258;2022-10-31T16:42:35;95538.00;;;15.96;63.85
71956;BME280;59829;50.562;6.258;2022-10-31T16:52:35;95540.91;;;15.77;65.44
71956;BME280;59829;50.562;6.258;2022-10-31T17:02:35;95520.91;;;15.63;66.73
71956;BME280;59829;50.562;6.258;2022-10-31T17:12:37;95502.28;;;15.51;69.30
71956;BME280;59829;50.562;6.258;2022-10-31T17:22:38;95509.19;;;15.34;69.62
71956;BME280;59829;50.562;6.258;2022-10-31T17:32:40;95520.81;;;15.30;69.42
71956;BME280;59829;50.562;6.258;2022-10-31T17:42:40;95507.88;;;15.22;69.85
71956;BME280;59829;50.562;6.258;2022-10-31T17:52:41;95499.66;;;15.11;70.74
71956;BME280;59829;50.562;6.258;2022-10-31T18:02:41;95501.72;;;15.07;71.18
71956;BME280;59829;50.562;6.258;2022-10-31T18:12:42;95499.78;;;15.01;72.40
71956;BME280;59829;50.562;6.258;2022-10-31T18:22:42;95498.16;;;15.00;72.11
71956;BME280;59829;50.562;6.258;2022-10-31T18:32:43;95491.31;;;14.83;73.98
71956;BME280;59829;50.562;6.258;2022-10-31T18:42:43;95499.88;;;14.91;74.35
71956;BME280;59829;50.562;6.258;2022-10-31T18:52:43;95492.31;;;14.90;75.30
71956;BME280;59829;50.562;6.258;2022-10-31T19:02:44;95486.97;;;14.83;77.29
71956;BME280;59829;50.562;6.258;2022-10-31T19:12:44;95488.41;;;14.77;78.33
71956;BME280;59829;50.562;6.258;2022-10-31T19:22:44;95502.28;;;14.76;79.05
71956;BME280;59829;50.562;6.258;2022-10-31T19:32:44;95488.28;;;14.87;79.83
71956;BME280;59829;50.562;6.258;2022-10-31T19:42:45;95473.94;;;14.85;82.71
71956;BME280;59829;50.562;6.258;2022-10-31T19:52:45;95484.56;;;14.82;81.58
71956;BME280;59829;50.562;6.258;2022-10-31T20:02:46;95461.94;;;14.67;82.68
71956;BME280;59829;50.562;6.258;2022-10-31T20:12:46;95452.56;;;14.58;84.31
71956;BME280;59829;50.562;6.258;2022-10-31T20:22:46;95453.16;;;14.44;85.98
71956;BME280;59829;50.562;6.258;2022-10-31T20:32:49;95427.72;;;14.49;86.27
71956;BME280;59829;50.562;6.258;2022-10-31T20:42:49;95423.53;;;14.56;86.37
71956;BME280;59829;50.562;6.258;2022-10-31T20:52:50;95418.72;;;14.53;86.90
71956;BME280;59829;50.562;6.258;2022-10-31T21:02:50;95418.09;;;14.59;87.45
71956;BME280;59829;50.562;6.258;2022-10-31T21:12:50;95419.34;;;14.55;87.14
71956;BME280;59829;50.562;6.258;2022-10-31T21:22:51;95410.06;;;14.70;85.71
71956;BME280;59829;50.562;6.258;2022-10-31T21:32:53;95402.00;;;14.73;85.32
71956;BME280;59829;50.562;6.258;2022-10-31T21:42:56;95368.84;;;14.87;85.46
71956;BME280;59829;50.562;6.258;2022-10-31T21:52:57;95372.09;;;14.97;84.43
71956;BME280;59829;50.562;6.258;2022-10-31T22:03:17;95378.84;;;14.90;84.31
71956;BME280;59829;50.562;6.258;2022-10-31T22:13:17;95370.31;;;14.97;84.79
71956;BME280;59829;50.562;6.258;2022-10-31T22:23:18;95367.91;;;14.96;84.92
71956;BME280;59829;50.562;6.258;2022-10-31T22:33:18;95384.50;;;14.93;86.30
71956;BME280;59829;50.562;6.258;2022-10-31T22:43:18;95372.09;;;15.05;86.18
71956;BME280;59829;50.562;6.258;2022-10-31T22:53:18;95356.13;;;14.93;87.35
71956;BME280;59829;50.562;6.258;2022-10-31T23:03:19;95360.16;;;15.04;87.57
71956;BME280;59829;50.562;6.258;2022-10-31T23:13:19;95371.59;;;14.77;92.20
71956;BME280;59829;50.562;6.258;2022-10-31T23:23:39;95378.75;;;14.49;99.48
71956;BME280;59829;50.562;6.258;2022-10-31T23:33:39;95355.41;;;14.16;100.00
71956;BME280;59829;50.562;6.258;2022-10-31T23:43:39;95349.38;;;13.92;100.00
71956;BME280;59829;50.562;6.258;2022-10-31T23:53:42;95327.66;;;13.94;100.00
